Time;durP1;ratioP1;P1;durP2;ratioP2;P2;SDS_P1;SDS_P2;PMS_P1;PMS_P2;Temp;Humidity;BMP_temperature;BMP_pressure;BME280_temperature;BME280_humidity;BME280_pressure;Samples;Min_cycle;Max_cycle;Signal;HPM_P1;HPM_P2
2022/05/30 04:05:00;;;;;;;7.28;3.28;;;5.20;99.90;;;;;;5158187;23;20286;-65
2022/05/30 04:07:26;;;;;;;3.93;3.47;;;5.30;99.90;;;;;;4974412;28;20267;-66
2022/05/30 04:09:52;;;;;;;4.90;2.80;;;5.30;99.90;;;;;;4972532;28;20210;-66
2022/05/30 04:12:22;;;;;;;2.83;2.63;;;5.30;99.90;;;;;;4977479;28;20180;-66
2022/05/30 04:15:00;;;;;;;2.65;2.55;;;5.40;99.90;;;;;;4981899;28;20423;-65
2022/05/30 04:17:27;;;;;;;2.85;2.65;;;5.50;99.90;;;;;;4981610;28;20632;-66
2022/05/30 04:19:53;;;;;;;3.40;2.75;;;5.50;99.90;;;;;;4978408;28;20199;-66
2022/05/30 04:22:19;;;;;;;2.00;1.90;;;5.60;99.90;;;;;;4977273;28;20323;-65
2022/05/30 04:24:45;;;;;;;3.17;2.90;;;5.60;99.90;;;;;;4977606;28;20282;-65
2022/05/30 04:27:11;;;;;;;3.30;3.10;;;5.60;99.90;;;;;;4977354;28;20648;-65
2022/05/30 04:29:37;;;;;;;2.43;2.23;;;5.70;99.90;;;;;;4977362;28;20462;-66
2022/05/30 04:32:05;;;;;;;2.83;2.63;;;5.80;99.90;;;;;;4977420;28;20899;-66
2022/05/30 04:34:30;;;;;;;2.55;2.35;;;5.80;99.90;;;;;;4975197;28;20184;-66
2022/05/30 04:36:56;;;;;;;2.43;2.23;;;5.90;99.90;;;;;;4977380;28;20231;-66
2022/05/30 04:39:22;;;;;;;2.53;2.30;;;6.00;99.90;;;;;;4977149;28;20195;-66
2022/05/30 04:41:47;;;;;;;2.90;2.70;;;6.20;99.90;;;;;;4975932;28;20634;-66
2022/05/30 04:44:13;;;;;;;3.67;3.37;;;6.30;99.90;;;;;;4976237;28;20263;-65
2022/05/30 04:46:38;;;;;;;2.10;2.00;;;6.50;99.90;;;;;;4976878;28;20662;-65
2022/05/30 04:49:04;;;;;;;2.90;2.50;;;6.70;99.90;;;;;;4976286;28;20200;-65
2022/05/30 04:51:30;;;;;;;2.73;2.53;;;6.80;99.90;;;;;;4976288;28;20548;-65
2022/05/30 04:53:56;;;;;;;2.28;2.17;;;6.90;99.90;;;;;;4971877;28;20439;-65
2022/05/30 04:56:22;;;;;;;2.53;2.33;;;7.00;99.90;;;;;;4955775;28;20183;-65
2022/05/30 04:58:49;;;;;;;2.60;2.40;;;7.10;99.90;;;;;;4956711;28;20641;-66
2022/05/30 05:01:15;;;;;;;4.65;3.08;;;7.20;99.90;;;;;;4956206;28;20173;-66
2022/05/30 05:03:42;;;;;;;2.55;2.35;;;7.10;99.90;;;;;;4956622;28;20291;-65
2022/05/30 05:06:14;;;;;;;3.58;2.53;;;7.00;99.90;;;;;;4975045;28;20199;-65
2022/05/30 05:08:51;;;;;;;3.50;2.40;;;7.00;99.90;;;;;;4976204;28;20247;-66
2022/05/30 05:11:25;;;;;;;4.03;3.20;;;7.10;99.90;;;;;;4976299;28;20634;-66
2022/05/30 05:13:52;;;;;;;3.50;3.20;;;7.30;99.90;;;;;;4975466;28;20207;-65
2022/05/30 05:16:20;;;;;;;4.00;3.13;;;7.40;99.90;;;;;;4973944;28;20172;-65
2022/05/30 05:18:46;;;;;;;3.55;3.25;;;7.70;99.90;;;;;;4971559;28;20440;-65
2022/05/30 05:21:21;;;;;;;3.05;2.85;;;7.90;99.90;;;;;;4954672;28;20180;-69
2022/05/30 05:23:48;;;;;;;3.40;3.10;;;8.00;99.90;;;;;;4953084;28;20416;-67
2022/05/30 05:26:14;;;;;;;3.30;3.05;;;8.20;99.90;;;;;;4954629;28;20483;-67
2022/05/30 05:28:39;;;;;;;3.03;2.83;;;8.20;99.90;;;;;;4954333;28;20204;-67
2022/05/30 05:31:07;;;;;;;7.73;2.53;;;8.20;99.90;;;;;;4956075;28;20176;-67
2022/05/30 05:33:33;;;;;;;3.85;3.55;;;8.20;99.90;;;;;;4956735;28;20454;-67
2022/05/30 05:35:59;;;;;;;2.30;2.20;;;8.20;99.90;;;;;;4975720;28;20182;-67
2022/05/30 05:38:25;;;;;;;2.53;2.33;;;8.10;99.90;;;;;;4975729;28;20176;-67
2022/05/30 05:40:51;;;;;;;3.67;2.90;;;8.20;99.90;;;;;;4959605;28;20511;-64
2022/05/30 05:43:17;;;;;;;3.10;2.80;;;8.30;99.90;;;;;;4955736;28;20207;-65
2022/05/30 05:45:43;;;;;;;2.50;2.40;;;8.30;99.90;;;;;;4956444;28;20645;-68
2022/05/30 05:48:10;;;;;;;2.43;2.23;;;8.50;99.90;;;;;;4956181;29;20579;-65
2022/05/30 05:50:43;;;;;;;2.08;1.98;;;8.80;99.90;;;;;;4956351;28;20429;-65
2022/05/30 05:53:10;;;;;;;2.78;2.63;;;9.10;99.90;;;;;;4956048;28;20185;-65
2022/05/30 05:55:37;;;;;;;3.08;2.88;;;9.30;99.90;;;;;;4971293;28;20183;-64
2022/05/30 05:58:04;;;;;;;2.60;2.40;;;9.50;99.90;;;;;;4975527;28;20199;-65
2022/05/30 06:00:31;;;;;;;2.25;2.10;;;9.50;99.90;;;;;;4975830;28;20517;-65
2022/05/30 06:02:57;;;;;;;2.83;2.63;;;9.50;99.90;;;;;;4974999;28;20513;-65
2022/05/30 06:05:22;;;;;;;2.60;2.40;;;9.60;99.90;;;;;;4975495;28;20267;-66
2022/05/30 06:07:48;;;;;;;4.37;3.23;;;9.50;99.90;;;;;;4975655;28;20714;-65
2022/05/30 06:10:15;;;;;;;2.63;2.43;;;9.50;99.90;;;;;;4960526;28;20240;-65
2022/05/30 06:12:42;;;;;;;3.35;3.05;;;9.60;99.90;;;;;;4955743;28;20491;-66
2022/05/30 06:15:16;;;;;;;3.08;2.40;;;9.60;99.90;;;;;;4956237;28;20192;-66
2022/05/30 06:17:43;;;;;;;2.70;1.95;;;9.80;99.90;;;;;;4956164;28;20311;-66
2022/05/30 06:20:11;;;;;;;2.15;2.05;;;9.80;99.90;;;;;;4956084;29;20247;-65
2022/05/30 06:22:37;;;;;;;3.05;2.85;;;9.90;99.90;;;;;;4955715;28;20176;-66
2022/05/30 06:25:04;;;;;;;2.50;2.40;;;10.00;99.90;;;;;;4970594;28;20196;-63
2022/05/30 06:27:30;;;;;;;3.17;2.88;;;10.00;99.90;;;;;;4974985;28;20620;-64
2022/05/30 06:29:56;;;;;;;3.30;2.78;;;10.00;99.90;;;;;;4974890;28;20200;-64
2022/05/30 06:32:23;;;;;;;2.75;2.55;;;10.10;99.90;;;;;;4964025;28;20196;-64
2022/05/30 06:34:49;;;;;;;2.60;1.90;;;10.10;99.90;;;;;;4968735;28;20204;-63
2022/05/30 06:37:17;;;;;;;1.90;1.70;;;10.30;99.90;;;;;;4974837;28;20160;-63
2022/05/30 06:39:43;;;;;;;3.10;1.95;;;10.40;99.90;;;;;;4973133;28;20179;-63
2022/05/30 06:42:10;;;;;;;2.17;2.07;;;10.50;99.90;;;;;;4974398;28;20234;-61
2022/05/30 06:44:37;;;;;;;2.25;2.15;;;10.60;99.90;;;;;;4960408;28;20207;-62
2022/05/30 06:47:04;;;;;;;2.50;2.40;;;10.80;99.90;;;;;;4960793;28;20185;-62
2022/05/30 06:49:30;;;;;;;5.18;2.50;;;10.90;99.90;;;;;;4974799;28;20229;-62
2022/05/30 06:51:55;;;;;;;3.70;3.10;;;11.10;99.90;;;;;;4974603;28;20686;-61
2022/05/30 06:54:21;;;;;;;2.63;1.90;;;11.30;99.90;;;;;;4974370;28;20432;-61
2022/05/30 06:59:32;;;;;;;4.82;2.80;;;11.70;99.90;;;;;;4972093;28;20188;-63
2022/05/30 07:02:00;;;;;;;2.67;1.80;;;12.00;99.90;;;;;;4963807;28;20183;-61
2022/05/30 07:04:25;;;;;;;1.77;1.67;;;12.20;99.90;;;;;;4974030;28;20436;-62
2022/05/30 07:06:51;;;;;;;1.83;1.73;;;12.40;99.90;;;;;;4962544;28;20427;-63
2022/05/30 07:09:17;;;;;;;1.97;1.87;;;12.50;99.90;;;;;;4955177;29;20570;-62
2022/05/30 07:11:43;;;;;;;1.97;1.87;;;12.60;99.90;;;;;;4955254;29;20171;-61
2022/05/30 07:14:12;;;;;;;2.37;2.17;;;12.60;99.90;;;;;;4966501;28;20213;-61
2022/05/30 07:16:39;;;;;;;1.60;1.50;;;12.70;99.90;;;;;;4974418;28;20208;-62
2022/05/30 07:19:05;;;;;;;1.93;1.87;;;12.60;99.90;;;;;;4961951;28;20419;-62
2022/05/30 07:21:31;;;;;;;1.73;1.63;;;12.80;99.90;;;;;;4955116;29;20432;-62
2022/05/30 07:23:56;;;;;;;4.00;2.07;;;13.10;99.90;;;;;;4954751;28;20432;-63
2022/05/30 07:26:22;;;;;;;2.03;1.70;;;13.50;99.90;;;;;;4957649;28;20561;-65
2022/05/30 07:28:48;;;;;;;1.70;1.60;;;14.20;99.90;;;;;;4962684;28;20302;-64
2022/05/30 07:31:16;;;;;;;1.90;1.80;;;15.20;99.90;;;;;;4971258;28;20172;-66
2022/05/30 07:33:44;;;;;;;1.70;1.60;;;16.30;99.90;;;;;;4963093;28;20192;-66
2022/05/30 07:36:18;;;;;;;1.70;1.60;;;17.50;99.30;;;;;;4968897;28;20416;-64
2022/05/30 07:38:44;;;;;;;1.77;1.67;;;18.80;96.40;;;;;;4954996;28;20422;-64
2022/05/30 07:41:10;;;;;;;1.90;1.80;;;20.50;93.00;;;;;;4959182;28;20416;-66
2022/05/30 07:43:36;;;;;;;2.70;1.63;;;21.30;89.20;;;;;;4960891;28;20201;-64
2022/05/30 07:46:08;;;;;;;2.10;1.40;;;22.10;90.40;;;;;;4957469;28;20239;-64
2022/05/30 07:48:34;;;;;;;2.20;2.10;;;23.20;93.30;;;;;;4975290;28;20474;-65
2022/05/30 07:51:01;;;;;;;1.67;1.60;;;24.70;90.50;;;;;;4965009;28;20417;-65
2022/05/30 07:53:28;;;;;;;1.70;1.60;;;25.30;77.00;;;;;;4977192;28;20425;-66
2022/05/30 07:55:54;;;;;;;1.80;1.70;;;25.70;77.50;;;;;;4977948;28;20386;-66
2022/05/30 07:58:20;;;;;;;1.97;1.77;;;26.30;78.10;;;;;;4976434;28;20894;-65
2022/05/30 08:00:49;;;;;;;2.30;2.20;;;27.10;72.90;;;;;;4977904;28;20177;-64
2022/05/30 08:03:16;;;;;;;2.27;2.17;;;27.60;73.90;;;;;;4965556;28;20783;-64
2022/05/30 08:05:46;;;;;;;2.67;2.20;;;28.30;71.00;;;;;;4966489;28;20418;-64
2022/05/30 08:08:13;;;;;;;1.97;1.87;;;28.00;63.50;;;;;;4977566;28;20915;-63
2022/05/30 08:10:38;;;;;;;1.93;1.83;;;28.30;65.00;;;;;;4977364;28;20819;-64
2022/05/30 08:13:04;;;;;;;1.83;1.73;;;28.80;64.90;;;;;;4968272;28;20399;-63
2022/05/30 08:15:31;;;;;;;4.27;3.20;;;29.10;63.60;;;;;;4958483;28;20645;-64
2022/05/30 08:17:58;;;;;;;2.90;2.70;;;29.50;65.40;;;;;;4966891;28;20424;-64
2022/05/30 08:20:26;;;;;;;1.70;1.60;;;29.40;59.20;;;;;;4974011;28;20776;-65
2022/05/30 08:22:52;;;;;;;2.70;1.70;;;29.00;59.50;;;;;;4976992;28;20390;-65
2022/05/30 08:25:19;;;;;;;1.63;1.57;;;28.80;58.70;;;;;;4975412;28;20443;-65
2022/05/30 08:27:46;;;;;;;1.53;1.43;;;29.00;58.20;;;;;;4970729;28;20518;-66
2022/05/30 08:30:17;;;;;;;1.43;1.30;;;28.80;54.60;;;;;;4962746;28;20459;-64
2022/05/30 08:32:44;;;;;;;1.60;1.50;;;28.70;56.10;;;;;;4964973;28;20813;-64
2022/05/30 08:35:16;;;;;;;2.40;1.67;;;28.40;54.30;;;;;;4969140;28;20422;-65
2022/05/30 08:37:42;;;;;;;1.40;1.30;;;28.10;54.90;;;;;;4958975;28;20417;-64
2022/05/30 08:42:59;;;;;;;1.70;1.60;;;28.60;56.30;;;;;;4957587;28;20522;-66
2022/05/30 08:45:25;;;;;;;1.67;1.57;;;29.30;52.20;;;;;;4957729;29;20417;-65
2022/05/30 08:47:54;;;;;;;1.50;1.40;;;29.10;52.70;;;;;;4967952;28;20194;-65
2022/05/30 08:50:34;;;;;;;1.40;1.30;;;28.70;52.40;;;;;;4976855;28;20487;-65
2022/05/30 08:53:29;;;;;;;1.00;1.00;;;28.80;53.30;;;;;;4972641;28;20387;-63
2022/05/30 08:56:06;;;;;;;1.40;1.30;;;29.30;54.00;;;;;;4969854;28;20438;-63
2022/05/30 08:58:37;;;;;;;1.67;1.57;;;29.70;52.20;;;;;;4976378;28;20412;-63
2022/05/30 09:01:11;;;;;;;1.47;1.37;;;30.00;50.40;;;;;;4971797;28;20474;-65
2022/05/30 09:04:08;;;;;;;1.00;1.00;;;30.00;49.70;;;;;;4976504;28;20839;-63
2022/05/30 09:06:42;;;;;;;2.13;1.80;;;30.10;50.30;;;;;;4969994;28;20456;-62
2022/05/30 09:09:25;;;;;;;1.57;1.47;;;30.60;49.00;;;;;;4958387;28;20460;-64
2022/05/30 09:12:00;;;;;;;1.53;1.43;;;30.50;49.60;;;;;;4975431;28;20832;-64
2022/05/30 09:14:37;;;;;;;2.30;1.50;;;30.20;48.50;;;;;;4976240;28;20415;-64
2022/05/30 09:17:09;;;;;;;1.57;1.47;;;29.70;48.30;;;;;;4976422;28;20867;-64
2022/05/30 09:19:35;;;;;;;1.60;1.50;;;29.40;48.90;;;;;;4975936;28;20419;-63
2022/05/30 09:22:04;;;;;;;2.00;1.90;;;29.60;50.00;;;;;;4975929;28;20571;-65
2022/05/30 09:24:33;;;;;;;1.83;1.63;;;30.00;49.10;;;;;;4969718;28;20437;-66
2022/05/30 09:27:01;;;;;;;1.50;1.40;;;29.80;48.80;;;;;;4956901;28;20409;-65
2022/05/30 09:29:30;;;;;;;1.40;1.30;;;29.50;48.80;;;;;;4956623;29;20461;-66
2022/05/30 09:32:23;;;;;;;1.00;1.00;;;29.50;50.30;;;;;;4956692;28;20413;-66
2022/05/30 09:34:51;;;;;;;1.90;1.80;;;29.80;50.20;;;;;;4957297;28;20531;-67
2022/05/30 09:37:32;;;;;;;1.40;1.40;;;30.20;48.60;;;;;;4960672;28;20427;-66
2022/05/30 09:39:57;;;;;;;1.30;1.20;;;30.40;48.50;;;;;;4957343;28;20447;-65
2022/05/30 09:42:35;;;;;;;1.73;1.63;;;30.50;47.10;;;;;;4956446;28;20416;-66
2022/05/30 09:45:10;;;;;;;1.47;1.37;;;30.30;46.90;;;;;;4974420;28;20223;-66
2022/05/30 09:47:36;;;;;;;1.67;1.40;;;28.80;48.30;;;;;;4976086;28;20918;-66
2022/05/30 09:50:20;;;;;;;1.40;1.20;;;29.10;49.40;;;;;;4975525;28;20459;-65
2022/05/30 09:52:46;;;;;;;1.80;1.70;;;29.50;49.80;;;;;;4956154;29;20415;-66
2022/05/30 09:55:36;;;;;;;1.40;1.27;;;29.90;48.50;;;;;;4956304;28;20444;-66
2022/05/30 09:58:04;;;;;;;1.97;1.87;;;29.00;47.60;;;;;;4956372;28;20921;-65
2022/05/30 10:00:30;;;;;;;1.77;1.67;;;28.10;46.80;;;;;;4970792;28;20475;-65
2022/05/30 10:03:23;;;;;;;1.40;1.30;;;27.00;49.70;;;;;;4974533;28;20924;-65
2022/05/30 10:05:49;;;;;;;1.10;1.10;;;26.00;52.30;;;;;;4969741;28;20561;-66
2022/05/30 10:08:25;;;;;;;1.50;1.40;;;25.70;51.60;;;;;;4972227;28;20504;-65
2022/05/30 10:10:52;;;;;;;0.90;0.90;;;25.20;52.90;;;;;;4955550;28;20183;-66
2022/05/30 10:13:37;;;;;;;0.93;0.93;;;24.50;52.60;;;;;;4955747;28;20399;-65
2022/05/30 10:16:06;;;;;;;1.30;1.20;;;23.70;52.90;;;;;;4970771;28;20402;-65
2022/05/30 10:18:50;;;;;;;1.50;1.40;;;23.30;53.60;;;;;;4974741;28;20818;-66
2022/05/30 10:21:28;;;;;;;1.17;1.07;;;22.70;51.10;;;;;;4969312;28;20427;-64
2022/05/30 10:30:14;;;;;;;1.10;1.00;;;21.50;55.90;;;;;;4974505;28;20462;-66
2022/05/30 10:33:03;;;;;;;1.40;1.30;;;22.20;56.80;;;;;;4974386;28;20416;-66
2022/05/30 10:36:03;;;;;;;5.57;1.40;;;23.10;56.40;;;;;;4959292;28;20391;-65
2022/05/30 10:38:34;;;;;;;0.90;0.90;;;23.10;53.20;;;;;;4941289;29;20455;-70
2022/05/30 10:41:18;;;;;;;1.13;1.10;;;22.30;53.80;;;;;;4964859;28;20432;-68
2022/05/30 10:44:01;;;;;;;1.23;1.23;;;21.70;53.90;;;;;;4955145;28;20872;-66
2022/05/30 10:46:42;;;;;;;1.20;1.10;;;21.10;55.60;;;;;;4964897;28;20455;-66
2022/05/30 10:49:18;;;;;;;1.30;1.20;;;20.10;56.10;;;;;;4967622;28;20871;-66
2022/05/30 10:51:59;;;;;;;1.23;1.03;;;19.60;55.70;;;;;;4955318;29;20495;-66
2022/05/30 10:54:43;;;;;;;1.07;1.07;;;19.50;56.60;;;;;;4955142;28;20406;-68
2022/05/30 10:57:33;;;;;;;1.03;1.03;;;20.00;56.00;;;;;;4955564;28;20434;-66
2022/05/30 11:00:09;;;;;;;1.73;1.20;;;20.40;55.30;;;;;;4953703;28;20962;-63
2022/05/30 11:02:54;;;;;;;1.00;1.00;;;20.10;55.30;;;;;;4955338;28;20408;-66
2022/05/30 11:05:37;;;;;;;1.00;1.00;;;19.80;56.10;;;;;;4973301;28;20423;-67
2022/05/30 11:08:35;;;;;;;0.80;0.80;;;20.00;57.20;;;;;;4974583;28;20399;-69
2022/05/30 11:11:10;;;;;;;1.10;1.10;;;20.50;57.20;;;;;;4953337;28;20485;-69
2022/05/30 11:13:59;;;;;;;1.17;1.00;;;20.80;57.50;;;;;;4954147;28;20443;-68
2022/05/30 11:17:13;;;;;;;1.53;1.00;;;21.00;57.90;;;;;;4953305;29;20434;-67
2022/05/30 11:19:58;;;;;;;1.40;1.30;;;21.10;56.30;;;;;;4968667;28;20413;-67
2022/05/30 11:22:44;;;;;;;2.67;1.20;;;20.90;55.30;;;;;;4978728;28;20415;-66
2022/05/30 11:25:14;;;;;;;1.13;1.13;;;20.50;54.40;;;;;;4980708;28;20424;-68
2022/05/30 11:27:55;;;;;;;1.13;1.03;;;20.20;55.70;;;;;;4980181;28;20820;-66
2022/05/30 11:30:36;;;;;;;1.00;1.00;;;19.90;55.30;;;;;;4979538;28;20469;-67
2022/05/30 11:33:31;;;;;;;1.20;1.07;;;19.70;56.70;;;;;;4966079;28;20985;-66
2022/05/30 11:36:35;;;;;;;1.13;1.13;;;19.60;56.00;;;;;;4980701;28;20425;-64
2022/05/30 11:39:12;;;;;;;1.20;1.10;;;19.60;55.60;;;;;;4961390;28;20499;-66
2022/05/30 11:42:00;;;;;;;1.03;0.90;;;19.30;55.10;;;;;;4961591;28;20470;-64
2022/05/30 11:44:48;;;;;;;1.10;1.10;;;19.10;55.90;;;;;;4960898;28;20916;-65
2022/05/30 11:47:20;;;;;;;1.37;1.27;;;18.70;54.20;;;;;;4976553;28;20950;-65
2022/05/30 11:49:59;;;;;;;0.80;0.80;;;18.60;55.00;;;;;;4960825;28;20430;-64
2022/05/30 11:52:31;;;;;;;1.33;1.23;;;18.70;57.60;;;;;;4961388;28;20412;-64
2022/05/30 11:55:20;;;;;;;3.03;1.00;;;18.90;56.80;;;;;;4961104;28;20456;-65
2022/05/30 11:58:08;;;;;;;0.77;0.77;;;19.10;54.20;;;;;;4961011;28;20916;-65
2022/05/30 12:00:45;;;;;;;2.20;1.40;;;19.20;52.80;;;;;;4961305;28;20812;-64
2022/05/30 12:03:32;;;;;;;1.13;1.07;;;19.10;53.70;;;;;;4970338;28;20542;-65
2022/05/30 12:06:09;;;;;;;1.10;1.00;;;19.00;55.40;;;;;;4980326;28;20434;-64
2022/05/30 12:08:40;;;;;;;1.20;1.20;;;19.00;56.30;;;;;;4980643;28;20819;-65
2022/05/30 12:11:41;;;;;;;1.27;0.90;;;18.90;58.20;;;;;;4980431;28;20733;-67
2022/05/30 12:14:37;;;;;;;0.80;0.80;;;18.90;56.80;;;;;;4980160;28;20442;-65
2022/05/30 12:17:22;;;;;;;1.27;1.17;;;18.90;58.10;;;;;;4980145;28;20409;-66
2022/05/30 12:25:36;;;;;;;1.30;1.20;;;19.90;58.40;;;;;;4980115;28;20469;-65
2022/05/30 12:28:26;;;;;;;1.43;1.33;;;20.40;53.50;;;;;;4978926;28;20888;-65
2022/05/30 12:30:55;;;;;;;1.47;1.10;;;20.60;52.50;;;;;;4972944;28;20210;-66
2022/05/30 12:33:27;;;;;;;0.77;0.77;;;20.80;54.60;;;;;;4977170;28;20412;-65
2022/05/30 12:36:17;;;;;;;1.00;1.00;;;21.00;52.80;;;;;;4977039;28;20903;-64
2022/05/30 12:38:53;;;;;;;1.87;0.90;;;21.10;51.80;;;;;;4958405;28;20482;-65
2022/05/30 12:41:27;;;;;;;5.70;2.97;;;21.10;51.90;;;;;;4975443;28;20441;-66
2022/05/30 12:43:53;;;;;;;0.90;0.90;;;21.30;52.10;;;;;;4976304;28;20419;-65
2022/05/30 12:46:24;;;;;;;1.40;0.70;;;21.30;50.30;;;;;;4976947;28;20942;-65
2022/05/30 12:48:58;;;;;;;0.80;0.80;;;21.10;52.50;;;;;;4976917;28;20218;-66
2022/05/30 12:51:37;;;;;;;1.50;1.40;;;21.00;49.50;;;;;;4977018;28;20406;-66
2022/05/30 12:54:03;;;;;;;0.60;0.60;;;20.80;48.50;;;;;;4976289;28;20424;-66
2022/05/30 12:56:38;;;;;;;0.80;0.80;;;20.70;49.40;;;;;;4975503;28;20416;-65
2022/05/30 12:59:03;;;;;;;2.10;1.90;;;20.60;49.60;;;;;;4976908;28;20182;-64
2022/05/30 13:01:44;;;;;;;0.80;0.80;;;20.60;48.40;;;;;;4977015;28;20783;-64
2022/05/30 13:04:15;;;;;;;0.97;0.97;;;20.60;48.60;;;;;;4974989;28;20199;-65
2022/05/30 13:06:58;;;;;;;1.00;1.00;;;20.40;51.30;;;;;;4976829;28;20443;-65
2022/05/30 13:09:36;;;;;;;1.33;1.23;;;20.20;50.70;;;;;;4976452;28;20432;-67
2022/05/30 13:12:11;;;;;;;0.90;0.90;;;20.00;52.20;;;;;;4976657;28;20408;-64
2022/05/30 13:14:36;;;;;;;1.30;1.20;;;19.90;52.40;;;;;;4976466;28;20434;-66
2022/05/30 13:17:20;;;;;;;1.63;1.37;;;20.00;52.40;;;;;;4976394;28;20412;-63
2022/05/30 13:19:51;;;;;;;0.93;0.93;;;20.00;52.10;;;;;;4976309;28;20502;-66
2022/05/30 13:22:27;;;;;;;2.37;1.60;;;20.10;52.60;;;;;;4975958;28;20415;-65
2022/05/30 13:24:53;;;;;;;0.90;0.90;;;20.20;51.40;;;;;;4976190;28;20439;-66
2022/05/30 13:27:19;;;;;;;0.83;0.83;;;20.10;49.60;;;;;;4976248;28;20935;-69
2022/05/30 13:29:45;;;;;;;1.40;1.30;;;20.00;51.60;;;;;;4976175;28;20458;-68
2022/05/30 13:32:13;;;;;;;1.03;1.03;;;19.80;51.20;;;;;;4975552;28;20404;-68
2022/05/30 13:34:52;;;;;;;1.43;1.33;;;19.80;51.70;;;;;;4960205;28;20188;-69
2022/05/30 13:37:27;;;;;;;0.97;0.97;;;19.80;51.70;;;;;;4956669;28;20465;-72
2022/05/30 13:39:56;;;;;;;0.93;0.93;;;19.90;50.00;;;;;;4967860;28;20451;-68
2022/05/30 13:42:25;;;;;;;0.93;0.93;;;19.80;49.20;;;;;;4975677;28;20393;-69
2022/05/30 13:44:55;;;;;;;1.33;1.13;;;19.80;49.70;;;;;;4974643;28;20765;-69
2022/05/30 13:47:21;;;;;;;1.23;1.13;;;19.70;49.70;;;;;;4975922;28;20476;-69
2022/05/30 13:49:53;;;;;;;1.50;1.03;;;19.50;49.90;;;;;;4975888;28;20525;-68
2022/05/30 13:52:24;;;;;;;1.20;1.20;;;19.50;49.60;;;;;;4961104;28;20223;-67
2022/05/30 13:54:54;;;;;;;0.90;0.90;;;19.40;50.20;;;;;;4956082;28;20471;-68
2022/05/30 13:57:21;;;;;;;1.63;1.00;;;19.50;50.20;;;;;;4956521;28;20403;-68
2022/05/30 13:59:51;;;;;;;1.37;1.27;;;19.40;50.40;;;;;;4956130;28;20744;-68
2022/05/30 14:02:29;;;;;;;1.10;1.07;;;19.40;49.70;;;;;;4955580;28;20405;-68
2022/05/30 14:04:59;;;;;;;1.97;1.30;;;19.40;51.80;;;;;;4955939;28;20444;-68
2022/05/30 14:07:49;;;;;;;1.40;1.37;;;19.50;50.10;;;;;;4956234;28;20414;-68
2022/05/30 14:10:19;;;;;;;1.10;1.10;;;19.50;51.10;;;;;;4954669;28;20588;-68
2022/05/30 14:12:49;;;;;;;1.00;1.00;;;19.60;51.20;;;;;;4956029;28;20411;-68
2022/05/30 14:15:33;;;;;;;1.00;1.00;;;19.70;50.10;;;;;;4956118;28;20404;-67
2022/05/30 14:18:26;;;;;;;1.43;1.30;;;19.80;50.50;;;;;;4956489;28;20423;-68
2022/05/30 14:20:53;;;;;;;2.20;0.87;;;19.80;49.40;;;;;;4954677;28;20423;-67
2022/05/30 14:23:23;;;;;;;1.00;1.00;;;19.80;50.00;;;;;;4955518;28;20439;-69
2022/05/30 14:25:54;;;;;;;1.07;1.07;;;19.70;50.10;;;;;;4955984;28;20447;-67
2022/05/30 14:28:29;;;;;;;1.87;0.97;;;19.80;50.40;;;;;;4966226;28;20915;-68
2022/05/30 14:31:11;;;;;;;1.20;1.20;;;19.80;49.10;;;;;;4975301;28;20756;-68
2022/05/30 14:33:39;;;;;;;1.53;1.30;;;19.80;50.40;;;;;;4974886;28;20426;-68
2022/05/30 14:36:25;;;;;;;1.17;1.17;;;19.70;49.50;;;;;;4975097;28;20399;-68
2022/05/30 14:38:51;;;;;;;2.03;1.20;;;19.60;49.40;;;;;;4975347;28;20403;-68
2022/05/30 14:41:21;;;;;;;1.50;1.40;;;19.50;48.70;;;;;;4975148;28;20462;-69
2022/05/30 14:43:54;;;;;;;2.60;1.10;;;19.40;48.70;;;;;;4974455;28;20252;-69
2022/05/30 14:46:41;;;;;;;1.20;1.10;;;19.40;49.00;;;;;;4975084;28;20403;-69
2022/05/30 14:49:25;;;;;;;0.90;0.90;;;19.30;49.20;;;;;;4974952;28;20448;-68
2022/05/30 14:51:55;;;;;;;1.00;1.00;;;19.20;48.50;;;;;;4974815;28;20396;-70
2022/05/30 14:54:39;;;;;;;1.27;1.17;;;19.00;49.00;;;;;;4974367;28;20430;-69
2022/05/30 14:57:16;;;;;;;1.20;1.10;;;18.90;48.60;;;;;;4974500;28;20402;-69
2022/05/30 14:59:43;;;;;;;1.70;1.30;;;18.80;48.70;;;;;;4974657;28;20383;-67
2022/05/30 15:05:00;;;;;;;1.10;1.10;;;18.70;49.30;;;;;;4974717;28;20539;-69
2022/05/30 15:07:37;;;;;;;1.17;1.13;;;18.80;49.00;;;;;;4974719;28;20412;-70
2022/05/30 15:10:04;;;;;;;1.43;1.33;;;18.70;49.10;;;;;;4974582;28;20205;-69
2022/05/30 15:12:29;;;;;;;3.73;1.40;;;18.70;49.90;;;;;;4974104;28;20498;-67
2022/05/30 15:14:55;;;;;;;1.37;1.27;;;18.70;49.20;;;;;;4974520;28;20975;-67
2022/05/30 15:17:20;;;;;;;2.07;1.13;;;18.60;49.60;;;;;;4974430;28;20179;-68
2022/05/30 15:19:46;;;;;;;1.10;0.93;;;18.70;49.10;;;;;;4974530;28;20185;-69
2022/05/30 15:22:15;;;;;;;1.30;1.30;;;18.80;49.30;;;;;;4974195;28;20649;-68
2022/05/30 15:24:41;;;;;;;0.97;0.97;;;18.80;49.20;;;;;;4974510;28;20482;-67
2022/05/30 15:27:07;;;;;;;1.00;1.00;;;18.90;49.60;;;;;;4973693;28;20415;-68
2022/05/30 15:29:33;;;;;;;1.00;1.00;;;18.90;48.90;;;;;;4955133;28;20200;-67
2022/05/30 15:32:03;;;;;;;1.47;1.37;;;19.00;48.80;;;;;;4954700;28;20499;-70
2022/05/30 15:34:29;;;;;;;1.20;1.10;;;18.90;48.60;;;;;;4954562;28;20203;-70
2022/05/30 15:36:55;;;;;;;1.10;1.00;;;18.90;49.10;;;;;;4955248;28;20490;-69
2022/05/30 15:39:22;;;;;;;1.20;1.10;;;19.00;48.30;;;;;;4954711;28;20190;-68
2022/05/30 15:41:53;;;;;;;1.30;1.20;;;18.90;48.20;;;;;;4955008;28;20417;-69
2022/05/30 15:44:22;;;;;;;1.70;1.30;;;18.80;48.60;;;;;;4953066;28;20444;-67
2022/05/30 15:46:49;;;;;;;0.83;0.77;;;18.80;48.50;;;;;;4955060;28;20417;-69
2022/05/30 15:49:18;;;;;;;0.93;0.90;;;18.80;48.60;;;;;;4954783;28;20459;-70
2022/05/30 15:51:48;;;;;;;1.60;1.50;;;18.80;49.30;;;;;;4954741;28;20414;-69
2022/05/30 15:57:17;;;;;;;0.80;0.80;;;18.80;49.70;;;;;;4954537;29;20406;-69
2022/05/30 15:59:50;;;;;;;1.00;1.00;;;18.80;49.40;;;;;;4953272;28;20423;-70
2022/05/30 16:02:17;;;;;;;1.10;1.10;;;18.80;49.80;;;;;;4954466;28;20938;-71
2022/05/30 16:04:43;;;;;;;0.93;0.93;;;18.80;50.00;;;;;;4954507;28;20456;-69
2022/05/30 16:07:11;;;;;;;0.90;0.90;;;18.80;50.40;;;;;;4954734;28;20404;-69
2022/05/30 16:09:39;;;;;;;1.13;1.13;;;18.80;50.40;;;;;;4958278;28;20427;-68
2022/05/30 16:12:06;;;;;;;2.30;1.50;;;18.80;50.10;;;;;;4958542;28;20904;-65
2022/05/30 16:14:32;;;;;;;1.67;1.57;;;18.80;50.90;;;;;;4957845;28;20440;-67
2022/05/30 16:16:59;;;;;;;2.10;1.33;;;18.90;49.80;;;;;;4958402;28;20415;-67
2022/05/30 16:19:25;;;;;;;1.27;1.13;;;18.80;49.80;;;;;;4958203;28;20438;-67
2022/05/30 16:21:54;;;;;;;1.10;1.10;;;18.80;49.50;;;;;;4958179;28;20401;-68
2022/05/30 16:24:23;;;;;;;1.37;1.23;;;18.80;49.20;;;;;;4957632;28;20201;-67
2022/05/30 16:26:49;;;;;;;1.40;1.30;;;18.70;49.30;;;;;;4957043;28;20444;-66
2022/05/30 16:29:15;;;;;;;1.00;1.00;;;18.70;50.00;;;;;;4975750;28;20493;-67
2022/05/30 16:31:41;;;;;;;1.53;1.03;;;18.60;50.00;;;;;;4977188;28;20447;-68
2022/05/30 16:34:07;;;;;;;1.20;1.20;;;18.60;50.70;;;;;;4976884;28;20683;-66
2022/05/30 16:36:40;;;;;;;1.20;1.20;;;18.60;51.30;;;;;;4977263;28;20175;-65
2022/05/30 16:39:06;;;;;;;1.20;1.10;;;18.50;51.00;;;;;;4975750;28;20476;-66
2022/05/30 16:41:32;;;;;;;1.07;1.07;;;18.50;50.50;;;;;;4976933;28;20460;-65
2022/05/30 16:43:59;;;;;;;1.27;1.10;;;18.40;50.30;;;;;;4976693;28;20795;-66
2022/05/30 16:46:27;;;;;;;1.13;1.13;;;18.40;50.50;;;;;;4977323;28;20525;-66
2022/05/30 16:48:53;;;;;;;1.40;1.30;;;18.30;50.90;;;;;;4975802;28;20516;-68
2022/05/30 16:51:19;;;;;;;1.70;1.40;;;18.40;51.30;;;;;;4977317;28;20451;-66
2022/05/30 16:53:45;;;;;;;1.00;1.00;;;18.40;51.20;;;;;;4975459;28;20437;-66
2022/05/30 16:56:11;;;;;;;1.47;1.13;;;18.30;51.30;;;;;;4976978;28;20525;-65
2022/05/30 16:58:38;;;;;;;1.00;0.90;;;18.40;50.60;;;;;;4977074;28;20194;-66
2022/05/30 17:01:04;;;;;;;0.90;0.90;;;18.30;50.00;;;;;;4977145;28;20632;-63
2022/05/30 17:03:33;;;;;;;0.90;0.80;;;18.30;50.40;;;;;;4976692;28;20438;-66
2022/05/30 17:06:00;;;;;;;1.00;1.00;;;18.20;49.80;;;;;;4977605;28;20415;-65
2022/05/30 17:08:30;;;;;;;0.80;0.80;;;18.20;50.00;;;;;;4977382;28;20395;-64
2022/05/30 17:10:56;;;;;;;2.03;1.30;;;18.20;49.90;;;;;;4977168;28;20780;-65
2022/05/30 17:13:24;;;;;;;1.40;1.30;;;18.10;50.00;;;;;;4976361;28;20437;-63
2022/05/30 17:15:52;;;;;;;1.10;1.10;;;18.10;49.50;;;;;;4977369;28;20753;-67
2022/05/30 17:18:20;;;;;;;1.20;0.83;;;18.10;49.70;;;;;;4976991;28;20775;-66
2022/05/30 17:20:49;;;;;;;1.10;1.10;;;18.00;50.40;;;;;;4976588;28;20846;-66
2022/05/30 17:23:20;;;;;;;1.07;1.07;;;18.00;50.90;;;;;;4976108;28;20524;-66
2022/05/30 17:25:51;;;;;;;1.17;1.07;;;17.90;50.70;;;;;;4976958;28;20434;-66
2022/05/30 17:31:14;;;;;;;1.10;1.10;;;17.90;51.10;;;;;;4956819;29;20454;-67
2022/05/30 17:33:39;;;;;;;1.47;1.37;;;17.90;51.20;;;;;;4956463;28;20431;-67
2022/05/30 17:36:06;;;;;;;1.30;1.30;;;17.90;51.50;;;;;;4956850;28;20949;-66
2022/05/30 17:38:33;;;;;;;1.70;1.60;;;17.90;52.50;;;;;;4957006;28;20266;-67
2022/05/30 17:40:59;;;;;;;1.73;1.13;;;18.00;51.80;;;;;;4956821;28;20828;-64